createdAt,value
2023-07-02T00:02:00.813Z,71.52
2023-07-02T00:04:30.193Z,71.70
2023-07-02T00:07:03.327Z,71.62
2023-07-02T00:09:32.842Z,71.59
2023-07-02T00:11:59.808Z,71.96
2023-07-02T00:14:36.423Z,72.00
2023-07-02T00:17:08.211Z,71.62
2023-07-02T00:19:35.102Z,71.84
2023-07-02T00:22:05.529Z,72.22
2023-07-02T00:24:33.504Z,72.58
2023-07-02T00:27:01.331Z,72.25
2023-07-02T00:29:36.652Z,72.56
2023-07-02T00:32:06.902Z,73.41
2023-07-02T00:34:33.762Z,72.63
2023-07-02T00:37:03.301Z,72.29
2023-07-02T00:39:31.110Z,72.17
2023-07-02T00:42:05.243Z,72.40
2023-07-02T00:44:37.202Z,72.69
2023-07-02T00:47:05.184Z,72.47
2023-07-02T00:49:39.744Z,72.35
2023-07-02T00:52:29.497Z,72.51
2023-07-02T00:54:58.855Z,73.39
2023-07-02T00:57:31.761Z,73.22
2023-07-02T01:00:03.871Z,73.18
2023-07-02T01:02:35.536Z,72.97
2023-07-02T01:05:03.542Z,73.54
2023-07-02T01:07:30.509Z,73.85
2023-07-02T01:09:57.498Z,74.06
2023-07-02T01:12:24.415Z,74.21
2023-07-02T01:15:01.690Z,74.83
2023-07-02T01:17:38.834Z,74.48
2023-07-02T01:20:08.538Z,74.51
2023-07-02T01:22:35.493Z,74.79
2023-07-02T01:25:03.684Z,74.93
2023-07-02T01:27:31.274Z,75.58
2023-07-02T01:29:58.487Z,75.41
2023-07-02T01:32:25.275Z,75.60
2023-07-02T01:34:54.249Z,76.96
2023-07-02T01:37:21.171Z,76.23
2023-07-02T01:39:48.236Z,76.56
2023-07-02T01:42:18.403Z,76.36
2023-07-02T01:44:46.545Z,76.44
2023-07-02T01:47:14.258Z,76.13
2023-07-02T01:49:41.463Z,75.92
2023-07-02T01:52:10.677Z,75.77
2023-07-02T01:54:37.945Z,76.05
2023-07-02T01:57:08.275Z,76.24
2023-07-02T01:59:35.685Z,77.01
2023-07-02T02:02:05.757Z,77.23
2023-07-02T02:04:41.587Z,77.16
2023-07-02T02:07:08.762Z,77.69
2023-07-02T02:09:35.508Z,77.72
2023-07-02T02:12:02.109Z,78.17
2023-07-02T02:14:28.886Z,76.98
2023-07-02T02:17:00.904Z,77.47
2023-07-02T02:19:28.445Z,78.90
2023-07-02T02:21:55.139Z,77.98
2023-07-02T02:24:21.869Z,77.58
2023-07-02T02:26:48.438Z,78.16
2023-07-02T02:29:15.257Z,78.56
2023-07-02T02:31:44.685Z,78.05
2023-07-02T02:34:13.350Z,78.41
2023-07-02T02:36:41.098Z,78.26
2023-07-02T02:39:07.673Z,78.14
2023-07-02T02:41:34.604Z,78.03
2023-07-02T02:44:01.348Z,77.84
2023-07-02T02:46:28.377Z,77.19
2023-07-02T02:48:55.282Z,77.16
2023-07-02T02:51:22.393Z,76.99
2023-07-02T02:53:50.057Z,76.62
2023-07-02T02:56:17.248Z,76.13
2023-07-02T02:58:45.186Z,75.50
2023-07-02T03:01:12.213Z,75.08
2023-07-02T03:03:40.916Z,75.02
2023-07-02T03:06:07.789Z,74.03
2023-07-02T03:08:34.436Z,73.80
2023-07-02T03:11:01.142Z,72.32
2023-07-02T03:13:29.438Z,72.98
2023-07-02T03:15:56.148Z,72.13
2023-07-02T03:18:23.722Z,73.07
2023-07-02T03:20:50.621Z,71.39
2023-07-02T03:23:17.324Z,71.72
2023-07-02T03:25:43.943Z,70.41
2023-07-02T03:28:10.664Z,70.90
2023-07-02T03:30:37.899Z,70.93
2023-07-02T03:33:04.881Z,71.40
2023-07-02T03:35:31.532Z,68.64
2023-07-02T03:37:58.658Z,70.40
2023-07-02T03:40:25.306Z,67.99
2023-07-02T03:42:52.270Z,68.73
2023-07-02T03:45:18.997Z,68.50
2023-07-02T03:47:46.270Z,69.10
2023-07-02T03:50:13.185Z,68.99
2023-07-02T03:52:40.027Z,67.86
2023-07-02T03:55:07.313Z,67.94
2023-07-02T03:57:34.357Z,68.19
2023-07-02T04:00:01.278Z,68.06
2023-07-02T04:02:28.109Z,67.44
2023-07-02T04:04:54.883Z,67.77
2023-07-02T04:07:21.628Z,67.00
2023-07-02T04:09:48.319Z,66.91
2023-07-02T04:12:14.962Z,67.00
2023-07-02T04:14:41.603Z,66.49
2023-07-02T04:17:08.579Z,66.20
2023-07-02T04:19:35.194Z,65.40
2023-07-02T04:22:01.918Z,66.06
2023-07-02T04:24:28.748Z,65.85
2023-07-02T04:27:25.498Z,65.67
2023-07-02T04:29:43.209Z,64.58
2023-07-02T04:32:10.107Z,64.85
2023-07-02T04:34:37.613Z,64.54
2023-07-02T04:37:05.870Z,62.98
2023-07-02T04:39:33.171Z,63.20
2023-07-02T04:41:59.896Z,62.20
2023-07-02T04:44:32.444Z,63.22
2023-07-02T04:47:02.284Z,62.15
2023-07-02T04:49:28.957Z,63.03
2023-07-02T04:51:55.714Z,62.26
2023-07-02T04:54:23.898Z,61.64
2023-07-02T04:56:51.712Z,61.54
2023-07-02T04:59:18.440Z,61.72
2023-07-02T05:01:46.147Z,61.26
2023-07-02T05:04:13.102Z,60.93
2023-07-02T05:06:40.317Z,58.84
2023-07-02T05:09:07.221Z,58.16
2023-07-02T05:11:36.827Z,58.33
2023-07-02T05:14:03.600Z,57.10
2023-07-02T05:16:30.355Z,58.25
2023-07-02T05:18:57.114Z,58.43
2023-07-02T05:21:24.394Z,57.76
2023-07-02T05:23:51.162Z,57.62
2023-07-02T05:26:17.804Z,58.06
2023-07-02T05:28:45.472Z,58.17
2023-07-02T05:31:12.309Z,58.44
2023-07-02T05:33:40.034Z,57.75
2023-07-02T05:36:06.942Z,57.43
2023-07-02T05:38:34.056Z,57.60
2023-07-02T05:41:00.739Z,56.97
2023-07-02T05:43:27.678Z,56.83
2023-07-02T05:45:54.884Z,56.25
2023-07-02T05:48:22.092Z,55.73
2023-07-02T05:50:48.929Z,55.77
2023-07-02T05:53:15.843Z,55.17
2023-07-02T05:55:43.234Z,55.44
2023-07-02T05:58:09.996Z,55.61
2023-07-02T06:00:37.388Z,54.68
2023-07-02T06:03:04.710Z,55.16
2023-07-02T06:05:32.393Z,55.24
2023-07-02T06:08:01.953Z,54.17
2023-07-02T06:10:28.885Z,54.39
2023-07-02T06:12:57.881Z,54.14
2023-07-02T06:15:24.680Z,54.36
2023-07-02T06:17:51.364Z,54.79
2023-07-02T06:20:18.138Z,53.93
2023-07-02T06:22:44.796Z,53.80
2023-07-02T06:25:14.528Z,53.85
2023-07-02T06:27:41.257Z,53.86
2023-07-02T06:30:08.539Z,53.47
2023-07-02T06:32:35.169Z,53.16
2023-07-02T06:35:01.885Z,52.64
2023-07-02T06:37:28.524Z,53.65
2023-07-02T06:39:55.185Z,52.94
2023-07-02T06:42:22.108Z,52.42
2023-07-02T06:44:48.774Z,52.35
2023-07-02T06:47:15.394Z,52.29
2023-07-02T06:49:42.063Z,52.23
2023-07-02T06:52:08.728Z,52.05
2023-07-02T06:54:35.622Z,51.93
2023-07-02T06:57:04.908Z,51.85
2023-07-02T06:59:31.749Z,51.03
2023-07-02T07:01:58.373Z,51.34
2023-07-02T07:04:25.336Z,51.83
2023-07-02T07:06:52.779Z,52.47
2023-07-02T07:09:19.489Z,52.40
2023-07-02T07:11:46.157Z,51.61
2023-07-02T07:14:14.088Z,50.88
2023-07-02T07:16:40.867Z,50.56
2023-07-02T07:19:08.536Z,50.89
2023-07-02T07:21:36.182Z,51.47
2023-07-02T07:24:04.341Z,51.06
2023-07-02T07:26:31.411Z,51.03
2023-07-02T07:28:59.005Z,50.81
2023-07-02T07:31:26.149Z,50.47
2023-07-02T07:33:52.828Z,50.54
2023-07-02T07:36:20.311Z,50.45
2023-07-02T07:38:47.061Z,50.87
2023-07-02T07:41:13.596Z,50.50
2023-07-02T07:43:40.589Z,50.39
2023-07-02T07:46:07.413Z,49.96
2023-07-02T07:48:34.503Z,50.56
2023-07-02T07:51:01.160Z,50.75
2023-07-02T07:53:27.982Z,50.28
2023-07-02T07:55:54.675Z,49.82
2023-07-02T07:58:21.479Z,49.51
2023-07-02T08:00:48.437Z,50.83
2023-07-02T08:03:16.419Z,50.50
2023-07-02T08:05:43.211Z,49.66
2023-07-02T08:13:00.051Z,47.71
2023-07-02T08:37:22.284Z,46.49
2023-07-02T09:34:30.118Z,43.05
2023-07-02T09:52:38.629Z,45.24
2023-07-02T09:55:57.202Z,46.02
2023-07-02T09:59:32.086Z,45.72
2023-07-02T10:02:11.088Z,47.08
2023-07-02T10:04:42.833Z,48.52
2023-07-02T10:07:09.626Z,49.51
2023-07-02T10:09:37.598Z,49.04
2023-07-02T10:12:26.415Z,48.37
2023-07-02T10:14:57.002Z,48.41
2023-07-02T10:17:32.818Z,47.00
2023-07-02T10:20:08.179Z,46.08
2023-07-02T10:22:45.518Z,46.57
2023-07-02T10:25:12.517Z,46.59
2023-07-02T10:27:43.188Z,47.01
2023-07-02T10:30:11.673Z,47.45
2023-07-02T10:32:39.414Z,46.72
2023-07-02T10:35:19.724Z,47.74
2023-07-02T10:37:47.012Z,47.37
2023-07-02T10:40:14.301Z,46.90
2023-07-02T10:42:51.692Z,47.02
2023-07-02T10:45:19.612Z,46.95
2023-07-02T10:47:46.986Z,46.75
2023-07-02T10:50:24.342Z,46.27
2023-07-02T10:52:51.997Z,46.15
2023-07-02T10:55:23.842Z,45.05
2023-07-02T10:58:04.343Z,44.75
2023-07-02T11:00:31.553Z,44.85
2023-07-02T11:02:59.124Z,44.18
2023-07-02T11:05:29.880Z,43.22
2023-07-02T11:08:09.188Z,44.33
2023-07-02T11:10:36.282Z,43.17
2023-07-02T11:13:14.776Z,42.86
2023-07-02T11:15:47.222Z,42.71
2023-07-02T11:18:17.692Z,41.52
2023-07-02T11:20:48.329Z,40.47
2023-07-02T11:23:23.613Z,40.46
2023-07-02T11:26:01.559Z,40.61
2023-07-02T11:28:31.852Z,41.63
2023-07-02T11:30:59.845Z,41.25
2023-07-02T11:33:36.491Z,40.29
2023-07-02T11:36:04.139Z,39.42
2023-07-02T11:38:31.246Z,38.99
2023-07-02T11:40:57.933Z,39.05
2023-07-02T11:43:24.650Z,39.33
2023-07-02T11:45:51.528Z,38.95
2023-07-02T11:48:18.332Z,38.83
2023-07-02T11:50:44.972Z,37.85
2023-07-02T11:53:11.971Z,38.06
2023-07-02T11:55:38.941Z,37.86
2023-07-02T11:58:05.540Z,39.31
2023-07-02T12:00:32.216Z,39.21
2023-07-02T12:02:59.288Z,37.80
2023-07-02T12:05:26.601Z,37.82
2023-07-02T12:07:53.755Z,37.56
2023-07-02T12:10:20.630Z,37.68
2023-07-02T12:12:47.300Z,37.79
2023-07-02T12:15:14.030Z,37.95
2023-07-02T12:17:40.858Z,37.09
2023-07-02T12:20:08.054Z,37.35
2023-07-02T12:22:34.741Z,38.54
2023-07-02T12:25:01.429Z,38.15
2023-07-02T12:27:28.271Z,36.90
2023-07-02T12:29:57.599Z,36.93
2023-07-02T12:32:24.435Z,36.48
2023-07-02T12:34:52.064Z,36.46
2023-07-02T12:37:20.078Z,35.93
2023-07-02T12:39:46.968Z,36.48
2023-07-02T12:42:13.807Z,36.36
2023-07-02T12:44:40.391Z,35.69
2023-07-02T12:47:07.044Z,35.65
2023-07-02T12:49:36.719Z,35.65
2023-07-02T12:52:05.728Z,35.91
2023-07-02T12:54:37.192Z,35.62
2023-07-02T12:58:15.812Z,35.27
2023-07-02T13:01:01.034Z,36.02
2023-07-02T13:08:31.366Z,36.36
2023-07-02T13:10:58.239Z,36.34
2023-07-02T13:13:26.284Z,35.08
2023-07-02T13:15:54.498Z,35.24
2023-07-02T13:18:21.311Z,35.80
2023-07-02T13:20:48.388Z,35.49
2023-07-02T13:23:15.310Z,35.56
2023-07-02T13:25:42.269Z,35.47
2023-07-02T13:28:08.920Z,35.39
2023-07-02T13:30:35.615Z,34.69
2023-07-02T13:33:02.757Z,34.74
2023-07-02T13:35:29.437Z,34.00
2023-07-02T13:37:56.125Z,34.96
2023-07-02T13:40:24.852Z,34.22
2023-07-02T13:42:51.530Z,33.64
2023-07-02T13:45:18.392Z,33.51
2023-07-02T13:47:46.558Z,33.27
2023-07-02T13:50:14.949Z,33.56
2023-07-02T13:52:41.621Z,33.36
2023-07-02T13:55:08.663Z,34.84
2023-07-02T13:57:35.344Z,35.60
2023-07-02T14:00:02.237Z,35.35
2023-07-02T14:02:33.016Z,34.73
2023-07-02T14:05:00.962Z,34.71
2023-07-02T14:07:28.221Z,35.42
2023-07-02T14:09:56.937Z,35.76
2023-07-02T14:12:23.578Z,35.39
2023-07-02T14:14:50.276Z,36.21
2023-07-02T14:17:17.089Z,36.34
2023-07-02T14:19:44.965Z,36.19
2023-07-02T14:22:12.251Z,36.01
2023-07-02T14:24:39.204Z,35.62
2023-07-02T14:27:06.098Z,35.20
2023-07-02T14:29:33.064Z,35.19
2023-07-02T14:31:59.949Z,35.65
2023-07-02T14:34:29.846Z,36.77
2023-07-02T14:36:59.420Z,35.65
2023-07-02T14:39:26.472Z,35.56
2023-07-02T14:41:53.269Z,35.98
2023-07-02T14:44:20.478Z,36.23
2023-07-02T14:46:47.136Z,36.20
2023-07-02T14:49:14.027Z,36.28
2023-07-02T14:51:41.718Z,36.14
2023-07-02T14:54:15.257Z,36.21
2023-07-02T14:56:41.974Z,36.18
2023-07-02T14:59:10.104Z,37.41
2023-07-02T15:01:39.385Z,36.31
2023-07-02T15:04:06.354Z,35.72
2023-07-02T15:06:37.052Z,35.94
2023-07-02T15:09:04.236Z,36.01
2023-07-02T15:24:26.229Z,35.64
2023-07-02T16:26:19.068Z,37.21
2023-07-02T16:57:38.539Z,38.42
2023-07-02T17:14:58.724Z,39.90
2023-07-02T17:17:29.678Z,40.48
2023-07-02T17:19:59.348Z,39.96
2023-07-02T17:22:28.849Z,40.72
2023-07-02T17:24:57.823Z,41.25
2023-07-02T17:27:28.531Z,41.25
2023-07-02T17:29:58.519Z,41.82
2023-07-02T17:32:33.956Z,41.70
2023-07-02T17:35:00.856Z,41.89
2023-07-02T17:37:30.761Z,42.12
2023-07-02T17:39:58.156Z,40.47
2023-07-02T17:53:21.368Z,43.49
2023-07-02T17:55:52.377Z,42.81
2023-07-02T17:58:19.250Z,42.54
2023-07-02T18:00:48.706Z,42.05
2023-07-02T18:03:18.829Z,41.98
2023-07-02T18:05:46.060Z,42.43
2023-07-02T18:08:12.783Z,42.18
2023-07-02T18:10:40.967Z,42.63
2023-07-02T18:13:08.305Z,43.47
2023-07-02T18:15:35.272Z,43.40
2023-07-02T18:18:02.106Z,43.94
2023-07-02T18:20:29.990Z,44.16
2023-07-02T18:22:56.787Z,44.96
2023-07-02T18:25:23.404Z,45.30
2023-07-02T18:28:06.043Z,45.76
2023-07-02T18:30:33.275Z,45.79
2023-07-02T18:33:00.366Z,45.64
2023-07-02T18:35:27.046Z,46.10
2023-07-02T18:37:53.835Z,46.12
2023-07-02T18:40:23.153Z,46.44
2023-07-02T18:42:50.342Z,46.22
2023-07-02T18:45:17.856Z,46.34
2023-07-02T18:55:41.450Z,47.42
2023-07-02T18:58:37.670Z,47.27
2023-07-02T19:11:54.410Z,48.52
2023-07-02T19:20:25.267Z,48.20
2023-07-02T19:32:41.295Z,44.61
2023-07-02T19:41:08.359Z,44.63
2023-07-02T20:15:06.560Z,45.96
2023-07-02T21:04:16.345Z,46.47
2023-07-02T21:06:43.128Z,46.66
2023-07-02T22:08:06.703Z,51.33
2023-07-02T22:15:09.174Z,51.69
2023-07-02T22:17:36.614Z,51.98
2023-07-02T22:30:05.957Z,52.82
2023-07-02T22:33:59.759Z,52.78
2023-07-02T23:03:41.531Z,52.31
2023-07-02T23:28:37.317Z,52.51
2023-07-02T23:31:53.992Z,52.85
2023-07-02T23:58:28.347Z,54.44
